sensor_id;sensor_type;location;lat;lon;timestamp;P1;durP1;ratioP1;P2;durP2;ratioP2
12224;SDS011;6175;50.956;11.064;2023-11-21T00:01:44;2.35;;;1.35;;
12224;SDS011;6175;50.956;11.064;2023-11-21T00:04:12;2.45;;;1.55;;
12224;SDS011;6175;50.956;11.064;2023-11-21T00:06:40;1.80;;;1.40;;
12224;SDS011;6175;50.956;11.064;2023-11-21T00:09:07;2.53;;;1.60;;
12224;SDS011;6175;50.956;11.064;2023-11-21T00:11:35;1.58;;;1.17;;
12224;SDS011;6175;50.956;11.064;2023-11-21T00:14:03;1.92;;;1.50;;
12224;SDS011;6175;50.956;11.064;2023-11-21T00:16:30;2.05;;;1.30;;
12224;SDS011;6175;50.956;11.064;2023-11-21T00:18:57;3.33;;;1.65;;
12224;SDS011;6175;50.956;11.064;2023-11-21T00:21:25;1.30;;;1.20;;
12224;SDS011;6175;50.956;11.064;2023-11-21T00:23:52;1.60;;;1.30;;
12224;SDS011;6175;50.956;11.064;2023-11-21T00:26:19;4.60;;;1.60;;
12224;SDS011;6175;50.956;11.064;2023-11-21T00:28:46;1.58;;;1.48;;
12224;SDS011;6175;50.956;11.064;2023-11-21T00:31:13;1.23;;;1.13;;
12224;SDS011;6175;50.956;11.064;2023-11-21T00:33:41;1.90;;;1.52;;
12224;SDS011;6175;50.956;11.064;2023-11-21T00:36:08;4.72;;;1.50;;
12224;SDS011;6175;50.956;11.064;2023-11-21T00:38:37;1.45;;;1.35;;
12224;SDS011;6175;50.956;11.064;2023-11-21T00:41:05;3.38;;;1.80;;
12224;SDS011;6175;50.956;11.064;2023-11-21T00:43:32;2.00;;;1.70;;
12224;SDS011;6175;50.956;11.064;2023-11-21T00:45:59;1.80;;;1.50;;
12224;SDS011;6175;50.956;11.064;2023-11-21T00:48:26;1.60;;;1.50;;
12224;SDS011;6175;50.956;11.064;2023-11-21T00:50:54;3.30;;;1.70;;
12224;SDS011;6175;50.956;11.064;2023-11-21T00:53:21;1.60;;;1.50;;
12224;SDS011;6175;50.956;11.064;2023-11-21T00:55:50;1.42;;;1.30;;
12224;SDS011;6175;50.956;11.064;2023-11-21T00:58:22;2.90;;;1.52;;
12224;SDS011;6175;50.956;11.064;2023-11-21T01:00:49;2.00;;;1.52;;
12224;SDS011;6175;50.956;11.064;2023-11-21T01:03:16;1.40;;;1.30;;
12224;SDS011;6175;50.956;11.064;2023-11-21T01:05:43;1.50;;;1.40;;
12224;SDS011;6175;50.956;11.064;2023-11-21T01:08:10;1.40;;;1.30;;
12224;SDS011;6175;50.956;11.064;2023-11-21T01:10:37;1.38;;;1.27;;
12224;SDS011;6175;50.956;11.064;2023-11-21T01:13:06;2.35;;;1.60;;
12224;SDS011;6175;50.956;11.064;2023-11-21T01:15:33;1.60;;;1.38;;
12224;SDS011;6175;50.956;11.064;2023-11-21T01:18:01;1.65;;;1.55;;
12224;SDS011;6175;50.956;11.064;2023-11-21T01:20:28;3.42;;;1.70;;
12224;SDS011;6175;50.956;11.064;2023-11-21T01:22:56;1.67;;;1.40;;
12224;SDS011;6175;50.956;11.064;2023-11-21T01:25:23;2.75;;;1.85;;
12224;SDS011;6175;50.956;11.064;2023-11-21T01:27:51;3.25;;;1.60;;
12224;SDS011;6175;50.956;11.064;2023-11-21T01:30:19;2.47;;;1.70;;
12224;SDS011;6175;50.956;11.064;2023-11-21T01:32:47;1.70;;;1.50;;
12224;SDS011;6175;50.956;11.064;2023-11-21T01:35:14;2.83;;;1.45;;
12224;SDS011;6175;50.956;11.064;2023-11-21T01:37:41;1.70;;;1.60;;
12224;SDS011;6175;50.956;11.064;2023-11-21T01:40:08;3.83;;;1.70;;
12224;SDS011;6175;50.956;11.064;2023-11-21T01:42:38;1.60;;;1.50;;
12224;SDS011;6175;50.956;11.064;2023-11-21T01:45:06;2.15;;;1.40;;
12224;SDS011;6175;50.956;11.064;2023-11-21T01:47:36;2.33;;;1.50;;
12224;SDS011;6175;50.956;11.064;2023-11-21T01:50:03;1.75;;;1.42;;
12224;SDS011;6175;50.956;11.064;2023-11-21T01:52:31;1.58;;;1.48;;
12224;SDS011;6175;50.956;11.064;2023-11-21T01:54:58;2.90;;;1.70;;
12224;SDS011;6175;50.956;11.064;2023-11-21T01:57:26;2.30;;;1.60;;
12224;SDS011;6175;50.956;11.064;2023-11-21T01:59:54;3.80;;;1.80;;
12224;SDS011;6175;50.956;11.064;2023-11-21T02:02:22;1.73;;;1.25;;
12224;SDS011;6175;50.956;11.064;2023-11-21T02:04:50;2.17;;;1.35;;
12224;SDS011;6175;50.956;11.064;2023-11-21T02:07:17;1.52;;;1.42;;
12224;SDS011;6175;50.956;11.064;2023-11-21T02:09:45;3.00;;;1.55;;
12224;SDS011;6175;50.956;11.064;2023-11-21T02:12:13;1.77;;;1.38;;
12224;SDS011;6175;50.956;11.064;2023-11-21T02:14:41;2.17;;;1.52;;
12224;SDS011;6175;50.956;11.064;2023-11-21T02:17:08;1.80;;;1.65;;
12224;SDS011;6175;50.956;11.064;2023-11-21T02:19:35;2.60;;;1.75;;
12224;SDS011;6175;50.956;11.064;2023-11-21T02:22:05;2.45;;;1.50;;
12224;SDS011;6175;50.956;11.064;2023-11-21T02:24:34;1.88;;;1.50;;
12224;SDS011;6175;50.956;11.064;2023-11-21T02:27:01;1.75;;;1.20;;
12224;SDS011;6175;50.956;11.064;2023-11-21T02:29:29;2.47;;;1.80;;
12224;SDS011;6175;50.956;11.064;2023-11-21T02:31:56;1.60;;;1.50;;
12224;SDS011;6175;50.956;11.064;2023-11-21T02:34:23;2.17;;;1.50;;
12224;SDS011;6175;50.956;11.064;2023-11-21T02:36:50;2.35;;;1.70;;
12224;SDS011;6175;50.956;11.064;2023-11-21T02:39:18;1.75;;;1.65;;
12224;SDS011;6175;50.956;11.064;2023-11-21T02:41:48;1.98;;;1.40;;
12224;SDS011;6175;50.956;11.064;2023-11-21T02:44:15;2.08;;;1.80;;
12224;SDS011;6175;50.956;11.064;2023-11-21T02:46:43;1.60;;;1.50;;
12224;SDS011;6175;50.956;11.064;2023-11-21T02:49:10;1.70;;;1.60;;
12224;SDS011;6175;50.956;11.064;2023-11-21T02:51:37;1.50;;;1.40;;
12224;SDS011;6175;50.956;11.064;2023-11-21T02:54:05;1.60;;;1.50;;
12224;SDS011;6175;50.956;11.064;2023-11-21T02:56:33;1.50;;;1.40;;
12224;SDS011;6175;50.956;11.064;2023-11-21T02:59:02;1.52;;;1.35;;
12224;SDS011;6175;50.956;11.064;2023-11-21T03:01:29;2.20;;;1.38;;
12224;SDS011;6175;50.956;11.064;2023-11-21T03:03:57;1.65;;;1.50;;
12224;SDS011;6175;50.956;11.064;2023-11-21T03:06:24;1.50;;;1.40;;
12224;SDS011;6175;50.956;11.064;2023-11-21T03:08:51;1.40;;;1.30;;
12224;SDS011;6175;50.956;11.064;2023-11-21T03:11:18;1.90;;;1.70;;
12224;SDS011;6175;50.956;11.064;2023-11-21T03:13:45;1.55;;;1.45;;
12224;SDS011;6175;50.956;11.064;2023-11-21T03:16:15;1.50;;;1.40;;
12224;SDS011;6175;50.956;11.064;2023-11-21T03:18:42;1.60;;;1.50;;
12224;SDS011;6175;50.956;11.064;2023-11-21T03:21:09;1.70;;;1.50;;
12224;SDS011;6175;50.956;11.064;2023-11-21T03:23:37;1.75;;;1.52;;
12224;SDS011;6175;50.956;11.064;2023-11-21T03:26:05;1.65;;;1.55;;
12224;SDS011;6175;50.956;11.064;2023-11-21T03:28:33;1.95;;;1.40;;
12224;SDS011;6175;50.956;11.064;2023-11-21T03:31:00;2.80;;;1.60;;
12224;SDS011;6175;50.956;11.064;2023-11-21T03:33:29;3.78;;;1.50;;
12224;SDS011;6175;50.956;11.064;2023-11-21T03:35:56;1.63;;;1.52;;
12224;SDS011;6175;50.956;11.064;2023-11-21T03:38:23;2.05;;;1.40;;
12224;SDS011;6175;50.956;11.064;2023-11-21T03:40:50;1.73;;;1.63;;
12224;SDS011;6175;50.956;11.064;2023-11-21T03:43:18;1.63;;;1.45;;
12224;SDS011;6175;50.956;11.064;2023-11-21T03:45:45;1.60;;;1.30;;
12224;SDS011;6175;50.956;11.064;2023-11-21T03:48:13;1.90;;;1.58;;
12224;SDS011;6175;50.956;11.064;2023-11-21T03:50:42;1.90;;;1.70;;
12224;SDS011;6175;50.956;11.064;2023-11-21T03:53:10;1.60;;;1.50;;
12224;SDS011;6175;50.956;11.064;2023-11-21T03:55:37;1.80;;;1.70;;
12224;SDS011;6175;50.956;11.064;2023-11-21T03:58:04;2.30;;;1.60;;
12224;SDS011;6175;50.956;11.064;2023-11-21T04:00:31;1.50;;;1.40;;
12224;SDS011;6175;50.956;11.064;2023-11-21T04:02:59;1.63;;;1.52;;
12224;SDS011;6175;50.956;11.064;2023-11-21T04:05:26;1.88;;;1.67;;
12224;SDS011;6175;50.956;11.064;2023-11-21T04:07:54;2.42;;;1.83;;
12224;SDS011;6175;50.956;11.064;2023-11-21T04:10:22;3.42;;;1.83;;
12224;SDS011;6175;50.956;11.064;2023-11-21T04:12:49;1.73;;;1.63;;
12224;SDS011;6175;50.956;11.064;2023-11-21T04:15:16;2.13;;;1.85;;
12224;SDS011;6175;50.956;11.064;2023-11-21T04:17:43;1.83;;;1.70;;
12224;SDS011;6175;50.956;11.064;2023-11-21T04:20:11;2.20;;;1.90;;
12224;SDS011;6175;50.956;11.064;2023-11-21T04:22:38;1.60;;;1.50;;
12224;SDS011;6175;50.956;11.064;2023-11-21T04:25:10;2.05;;;1.63;;
12224;SDS011;6175;50.956;11.064;2023-11-21T04:27:39;2.03;;;1.50;;
12224;SDS011;6175;50.956;11.064;2023-11-21T04:30:09;2.05;;;1.90;;
12224;SDS011;6175;50.956;11.064;2023-11-21T04:32:36;1.80;;;1.70;;
12224;SDS011;6175;50.956;11.064;2023-11-21T04:35:04;2.55;;;1.85;;
12224;SDS011;6175;50.956;11.064;2023-11-21T04:37:31;2.17;;;1.92;;
12224;SDS011;6175;50.956;11.064;2023-11-21T04:39:58;2.22;;;1.77;;
12224;SDS011;6175;50.956;11.064;2023-11-21T04:42:27;1.77;;;1.67;;
12224;SDS011;6175;50.956;11.064;2023-11-21T04:44:55;2.78;;;2.00;;
12224;SDS011;6175;50.956;11.064;2023-11-21T04:47:22;2.50;;;2.30;;
12224;SDS011;6175;50.956;11.064;2023-11-21T04:49:49;2.83;;;2.10;;
12224;SDS011;6175;50.956;11.064;2023-11-21T04:52:17;2.38;;;2.08;;
12224;SDS011;6175;50.956;11.064;2023-11-21T04:54:45;2.42;;;2.22;;
12224;SDS011;6175;50.956;11.064;2023-11-21T04:57:13;2.65;;;2.00;;
12224;SDS011;6175;50.956;11.064;2023-11-21T04:59:44;3.40;;;2.25;;
12224;SDS011;6175;50.956;11.064;2023-11-21T05:02:11;2.30;;;2.10;;
12224;SDS011;6175;50.956;11.064;2023-11-21T05:04:39;2.40;;;2.20;;
12224;SDS011;6175;50.956;11.064;2023-11-21T05:07:07;2.47;;;2.13;;
12224;SDS011;6175;50.956;11.064;2023-11-21T05:09:35;2.60;;;2.40;;
12224;SDS011;6175;50.956;11.064;2023-11-21T05:12:03;2.90;;;2.40;;
12224;SDS011;6175;50.956;11.064;2023-11-21T05:14:30;2.60;;;2.40;;
12224;SDS011;6175;50.956;11.064;2023-11-21T05:16:58;3.00;;;2.78;;
12224;SDS011;6175;50.956;11.064;2023-11-21T05:19:26;2.65;;;2.45;;
12224;SDS011;6175;50.956;11.064;2023-11-21T05:21:53;2.70;;;2.50;;
12224;SDS011;6175;50.956;11.064;2023-11-21T05:24:21;2.63;;;2.40;;
12224;SDS011;6175;50.956;11.064;2023-11-21T05:26:48;3.83;;;2.80;;
12224;SDS011;6175;50.956;11.064;2023-11-21T05:29:15;3.83;;;2.92;;
12224;SDS011;6175;50.956;11.064;2023-11-21T05:31:42;2.63;;;2.42;;
12224;SDS011;6175;50.956;11.064;2023-11-21T05:34:11;3.47;;;2.67;;
12224;SDS011;6175;50.956;11.064;2023-11-21T05:36:38;2.72;;;2.42;;
12224;SDS011;6175;50.956;11.064;2023-11-21T05:39:05;4.15;;;2.90;;
12224;SDS011;6175;50.956;11.064;2023-11-21T05:41:33;2.78;;;2.58;;
12224;SDS011;6175;50.956;11.064;2023-11-21T05:44:00;3.35;;;2.67;;
12224;SDS011;6175;50.956;11.064;2023-11-21T05:46:27;2.97;;;2.78;;
12224;SDS011;6175;50.956;11.064;2023-11-21T05:48:54;2.85;;;2.60;;
12224;SDS011;6175;50.956;11.064;2023-11-21T05:51:23;3.28;;;2.80;;
12224;SDS011;6175;50.956;11.064;2023-11-21T05:53:50;3.08;;;2.78;;
12224;SDS011;6175;50.956;11.064;2023-11-21T05:56:16;3.00;;;2.78;;
12224;SDS011;6175;50.956;11.064;2023-11-21T05:58:44;3.35;;;3.00;;
12224;SDS011;6175;50.956;11.064;2023-11-21T06:01:11;3.08;;;2.72;;
12224;SDS011;6175;50.956;11.064;2023-11-21T06:03:38;3.55;;;3.25;;
12224;SDS011;6175;50.956;11.064;2023-11-21T06:06:05;3.75;;;2.97;;
12224;SDS011;6175;50.956;11.064;2023-11-21T06:08:34;3.45;;;3.15;;
12224;SDS011;6175;50.956;11.064;2023-11-21T06:11:01;3.30;;;2.70;;
12224;SDS011;6175;50.956;11.064;2023-11-21T06:13:28;3.92;;;3.53;;
12224;SDS011;6175;50.956;11.064;2023-11-21T06:15:56;3.58;;;3.28;;
12224;SDS011;6175;50.956;11.064;2023-11-21T06:18:23;3.55;;;2.90;;
12224;SDS011;6175;50.956;11.064;2023-11-21T06:20:50;3.00;;;2.80;;
12224;SDS011;6175;50.956;11.064;2023-11-21T06:23:18;2.90;;;2.60;;
12224;SDS011;6175;50.956;11.064;2023-11-21T06:25:46;3.08;;;2.72;;
12224;SDS011;6175;50.956;11.064;2023-11-21T06:28:14;3.20;;;2.90;;
12224;SDS011;6175;50.956;11.064;2023-11-21T06:30:43;3.15;;;2.85;;
12224;SDS011;6175;50.956;11.064;2023-11-21T06:33:10;3.85;;;3.22;;
12224;SDS011;6175;50.956;11.064;2023-11-21T06:35:37;5.00;;;4.45;;
12224;SDS011;6175;50.956;11.064;2023-11-21T06:38:05;5.38;;;3.92;;
12224;SDS011;6175;50.956;11.064;2023-11-21T06:40:34;5.05;;;4.20;;
12224;SDS011;6175;50.956;11.064;2023-11-21T06:43:02;5.18;;;4.20;;
12224;SDS011;6175;50.956;11.064;2023-11-21T06:45:30;5.10;;;3.78;;
12224;SDS011;6175;50.956;11.064;2023-11-21T06:47:57;4.20;;;3.80;;
12224;SDS011;6175;50.956;11.064;2023-11-21T06:50:24;5.07;;;4.03;;
12224;SDS011;6175;50.956;11.064;2023-11-21T06:52:51;4.90;;;4.13;;
12224;SDS011;6175;50.956;11.064;2023-11-21T06:55:18;5.32;;;4.28;;
12224;SDS011;6175;50.956;11.064;2023-11-21T06:57:46;7.03;;;4.93;;
12224;SDS011;6175;50.956;11.064;2023-11-21T07:00:15;5.20;;;4.38;;
12224;SDS011;6175;50.956;11.064;2023-11-21T07:02:43;4.97;;;3.70;;
12224;SDS011;6175;50.956;11.064;2023-11-21T07:05:10;5.30;;;4.80;;
12224;SDS011;6175;50.956;11.064;2023-11-21T07:07:39;4.65;;;4.13;;
12224;SDS011;6175;50.956;11.064;2023-11-21T07:10:06;7.15;;;5.15;;
12224;SDS011;6175;50.956;11.064;2023-11-21T07:12:34;8.10;;;5.93;;
12224;SDS011;6175;50.956;11.064;2023-11-21T07:15:01;10.43;;;6.80;;
12224;SDS011;6175;50.956;11.064;2023-11-21T07:17:31;8.48;;;6.63;;
12224;SDS011;6175;50.956;11.064;2023-11-21T07:20:00;8.25;;;6.28;;
12224;SDS011;6175;50.956;11.064;2023-11-21T07:22:27;7.45;;;5.50;;
12224;SDS011;6175;50.956;11.064;2023-11-21T07:24:55;7.45;;;5.63;;
12224;SDS011;6175;50.956;11.064;2023-11-21T07:27:22;7.60;;;5.22;;
12224;SDS011;6175;50.956;11.064;2023-11-21T07:29:50;6.10;;;5.10;;
12224;SDS011;6175;50.956;11.064;2023-11-21T07:32:17;7.72;;;5.47;;
12224;SDS011;6175;50.956;11.064;2023-11-21T07:34:45;7.15;;;5.38;;
12224;SDS011;6175;50.956;11.064;2023-11-21T07:37:13;6.43;;;5.38;;
12224;SDS011;6175;50.956;11.064;2023-11-21T07:39:40;7.82;;;5.43;;
12224;SDS011;6175;50.956;11.064;2023-11-21T07:42:07;8.30;;;6.50;;
12224;SDS011;6175;50.956;11.064;2023-11-21T07:44:36;11.13;;;7.35;;
12224;SDS011;6175;50.956;11.064;2023-11-21T07:47:03;8.70;;;7.18;;
12224;SDS011;6175;50.956;11.064;2023-11-21T07:49:30;9.77;;;7.45;;
12224;SDS011;6175;50.956;11.064;2023-11-21T07:51:59;10.32;;;7.38;;
12224;SDS011;6175;50.956;11.064;2023-11-21T07:54:26;8.52;;;6.40;;
12224;SDS011;6175;50.956;11.064;2023-11-21T07:56:53;7.90;;;6.40;;
12224;SDS011;6175;50.956;11.064;2023-11-21T07:59:20;10.00;;;7.13;;
12224;SDS011;6175;50.956;11.064;2023-11-21T08:01:48;7.68;;;6.20;;
12224;SDS011;6175;50.956;11.064;2023-11-21T08:04:15;7.10;;;5.65;;
12224;SDS011;6175;50.956;11.064;2023-11-21T08:06:42;9.35;;;6.40;;
12224;SDS011;6175;50.956;11.064;2023-11-21T08:09:11;8.70;;;6.20;;
12224;SDS011;6175;50.956;11.064;2023-11-21T08:11:38;6.10;;;5.20;;
12224;SDS011;6175;50.956;11.064;2023-11-21T08:14:05;8.02;;;6.05;;
12224;SDS011;6175;50.956;11.064;2023-11-21T08:16:32;8.32;;;6.15;;
12224;SDS011;6175;50.956;11.064;2023-11-21T08:18:59;8.45;;;6.55;;
12224;SDS011;6175;50.956;11.064;2023-11-21T08:21:27;8.15;;;6.10;;
12224;SDS011;6175;50.956;11.064;2023-11-21T08:23:55;7.15;;;5.95;;
12224;SDS011;6175;50.956;11.064;2023-11-21T08:26:23;6.05;;;5.05;;
12224;SDS011;6175;50.956;11.064;2023-11-21T08:28:51;7.85;;;6.10;;
12224;SDS011;6175;50.956;11.064;2023-11-21T08:31:23;8.75;;;6.03;;
12224;SDS011;6175;50.956;11.064;2023-11-21T08:33:50;9.82;;;7.20;;
12224;SDS011;6175;50.956;11.064;2023-11-21T08:36:20;8.45;;;6.25;;
12224;SDS011;6175;50.956;11.064;2023-11-21T08:38:48;8.07;;;6.13;;
12224;SDS011;6175;50.956;11.064;2023-11-21T08:41:17;7.05;;;5.28;;
12224;SDS011;6175;50.956;11.064;2023-11-21T08:43:47;5.50;;;4.82;;
12224;SDS011;6175;50.956;11.064;2023-11-21T08:46:14;6.65;;;5.38;;
12224;SDS011;6175;50.956;11.064;2023-11-21T08:48:42;5.80;;;5.18;;
12224;SDS011;6175;50.956;11.064;2023-11-21T08:51:10;6.97;;;5.43;;
12224;SDS011;6175;50.956;11.064;2023-11-21T08:53:39;7.65;;;5.70;;
12224;SDS011;6175;50.956;11.064;2023-11-21T08:56:07;8.00;;;5.45;;
12224;SDS011;6175;50.956;11.064;2023-11-21T08:58:35;6.68;;;5.88;;
12224;SDS011;6175;50.956;11.064;2023-11-21T09:01:05;7.60;;;5.63;;
12224;SDS011;6175;50.956;11.064;2023-11-21T09:03:32;6.25;;;5.50;;
12224;SDS011;6175;50.956;11.064;2023-11-21T09:06:00;9.52;;;5.68;;
12224;SDS011;6175;50.956;11.064;2023-11-21T09:08:28;5.82;;;5.20;;
12224;SDS011;6175;50.956;11.064;2023-11-21T09:10:57;6.38;;;5.20;;
12224;SDS011;6175;50.956;11.064;2023-11-21T09:13:24;5.82;;;4.63;;
12224;SDS011;6175;50.956;11.064;2023-11-21T09:15:51;5.90;;;4.57;;
12224;SDS011;6175;50.956;11.064;2023-11-21T09:18:19;7.00;;;5.65;;
12224;SDS011;6175;50.956;11.064;2023-11-21T09:20:47;6.40;;;5.00;;
12224;SDS011;6175;50.956;11.064;2023-11-21T09:23:14;6.10;;;5.15;;
12224;SDS011;6175;50.956;11.064;2023-11-21T09:25:41;8.85;;;5.43;;
12224;SDS011;6175;50.956;11.064;2023-11-21T09:28:11;6.25;;;4.93;;
12224;SDS011;6175;50.956;11.064;2023-11-21T09:30:38;5.53;;;4.93;;
12224;SDS011;6175;50.956;11.064;2023-11-21T09:33:05;7.78;;;4.93;;
12224;SDS011;6175;50.956;11.064;2023-11-21T09:35:37;8.20;;;5.03;;
12224;SDS011;6175;50.956;11.064;2023-11-21T09:38:04;5.72;;;4.90;;
12224;SDS011;6175;50.956;11.064;2023-11-21T09:40:35;6.95;;;5.20;;
12224;SDS011;6175;50.956;11.064;2023-11-21T09:43:04;6.03;;;4.75;;
12224;SDS011;6175;50.956;11.064;2023-11-21T09:45:39;8.18;;;5.80;;
12224;SDS011;6175;50.956;11.064;2023-11-21T09:48:06;7.28;;;5.22;;
12224;SDS011;6175;50.956;11.064;2023-11-21T09:50:34;5.72;;;5.10;;
12224;SDS011;6175;50.956;11.064;2023-11-21T09:53:06;8.38;;;4.97;;
12224;SDS011;6175;50.956;11.064;2023-11-21T09:55:40;6.00;;;5.10;;
12224;SDS011;6175;50.956;11.064;2023-11-21T09:58:09;6.88;;;4.47;;
12224;SDS011;6175;50.956;11.064;2023-11-21T10:00:39;5.07;;;4.03;;
12224;SDS011;6175;50.956;11.064;2023-11-21T10:03:07;6.63;;;5.40;;
12224;SDS011;6175;50.956;11.064;2023-11-21T10:05:34;6.38;;;4.57;;
12224;SDS011;6175;50.956;11.064;2023-11-21T10:08:03;6.80;;;4.78;;
12224;SDS011;6175;50.956;11.064;2023-11-21T10:10:33;6.50;;;5.15;;
12224;SDS011;6175;50.956;11.064;2023-11-21T10:13:01;5.75;;;5.15;;
12224;SDS011;6175;50.956;11.064;2023-11-21T10:15:31;5.25;;;4.72;;
12224;SDS011;6175;50.956;11.064;2023-11-21T10:18:01;6.65;;;5.72;;
12224;SDS011;6175;50.956;11.064;2023-11-21T10:20:28;6.25;;;5.28;;
12224;SDS011;6175;50.956;11.064;2023-11-21T10:22:55;7.32;;;5.43;;
12224;SDS011;6175;50.956;11.064;2023-11-21T10:25:24;8.50;;;5.65;;
12224;SDS011;6175;50.956;11.064;2023-11-21T10:27:56;6.30;;;5.68;;
12224;SDS011;6175;50.956;11.064;2023-11-21T10:30:27;7.68;;;6.00;;
12224;SDS011;6175;50.956;11.064;2023-11-21T10:32:58;6.30;;;5.65;;
12224;SDS011;6175;50.956;11.064;2023-11-21T10:35:38;6.35;;;5.35;;
12224;SDS011;6175;50.956;11.064;2023-11-21T10:38:06;14.43;;;7.72;;
12224;SDS011;6175;50.956;11.064;2023-11-21T10:40:38;8.90;;;6.93;;
12224;SDS011;6175;50.956;11.064;2023-11-21T10:43:07;6.85;;;5.65;;
12224;SDS011;6175;50.956;11.064;2023-11-21T10:45:36;8.15;;;6.07;;
12224;SDS011;6175;50.956;11.064;2023-11-21T10:48:04;8.60;;;6.05;;
12224;SDS011;6175;50.956;11.064;2023-11-21T10:50:33;7.10;;;5.93;;
12224;SDS011;6175;50.956;11.064;2023-11-21T10:53:01;6.22;;;5.63;;
12224;SDS011;6175;50.956;11.064;2023-11-21T10:55:29;10.63;;;6.45;;
12224;SDS011;6175;50.956;11.064;2023-11-21T10:58:00;7.63;;;5.90;;
12224;SDS011;6175;50.956;11.064;2023-11-21T11:00:29;7.20;;;5.85;;
12224;SDS011;6175;50.956;11.064;2023-11-21T11:02:57;5.25;;;4.75;;
12224;SDS011;6175;50.956;11.064;2023-11-21T11:05:25;7.35;;;6.00;;
12224;SDS011;6175;50.956;11.064;2023-11-21T11:07:56;9.02;;;6.32;;
12224;SDS011;6175;50.956;11.064;2023-11-21T11:10:26;7.80;;;6.05;;
12224;SDS011;6175;50.956;11.064;2023-11-21T11:12:54;6.95;;;5.65;;
12224;SDS011;6175;50.956;11.064;2023-11-21T11:15:24;6.47;;;5.45;;
12224;SDS011;6175;50.956;11.064;2023-11-21T11:17:51;7.78;;;5.60;;
12224;SDS011;6175;50.956;11.064;2023-11-21T11:20:21;6.43;;;5.65;;
12224;SDS011;6175;50.956;11.064;2023-11-21T11:22:52;8.32;;;6.90;;
12224;SDS011;6175;50.956;11.064;2023-11-21T11:25:35;7.60;;;6.45;;
12224;SDS011;6175;50.956;11.064;2023-11-21T11:28:14;10.68;;;7.63;;
12224;SDS011;6175;50.956;11.064;2023-11-21T11:30:50;7.53;;;6.32;;
12224;SDS011;6175;50.956;11.064;2023-11-21T11:33:30;7.80;;;6.07;;
12224;SDS011;6175;50.956;11.064;2023-11-21T11:36:03;8.25;;;6.65;;
12224;SDS011;6175;50.956;11.064;2023-11-21T11:38:33;8.82;;;6.07;;
12224;SDS011;6175;50.956;11.064;2023-11-21T11:41:01;8.00;;;6.70;;
12224;SDS011;6175;50.956;11.064;2023-11-21T11:43:29;11.32;;;6.93;;
12224;SDS011;6175;50.956;11.064;2023-11-21T11:45:59;10.65;;;7.63;;
12224;SDS011;6175;50.956;11.064;2023-11-21T11:48:29;10.27;;;7.90;;
12224;SDS011;6175;50.956;11.064;2023-11-21T11:51:03;11.77;;;8.80;;
12224;SDS011;6175;50.956;11.064;2023-11-21T11:53:37;12.13;;;8.80;;
12224;SDS011;6175;50.956;11.064;2023-11-21T11:56:21;13.70;;;8.88;;
12224;SDS011;6175;50.956;11.064;2023-11-21T11:58:51;15.23;;;10.35;;
12224;SDS011;6175;50.956;11.064;2023-11-21T12:01:21;15.07;;;10.43;;
12224;SDS011;6175;50.956;11.064;2023-11-21T12:06:56;13.40;;;9.98;;
12224;SDS011;6175;50.956;11.064;2023-11-21T12:09:25;16.45;;;11.05;;
12224;SDS011;6175;50.956;11.064;2023-11-21T12:11:52;14.95;;;10.27;;
12224;SDS011;6175;50.956;11.064;2023-11-21T12:14:21;13.82;;;10.35;;
12224;SDS011;6175;50.956;11.064;2023-11-21T12:16:51;12.50;;;9.38;;
12224;SDS011;6175;50.956;11.064;2023-11-21T12:19:18;13.23;;;9.65;;
12224;SDS011;6175;50.956;11.064;2023-11-21T12:21:45;15.15;;;10.35;;
12224;SDS011;6175;50.956;11.064;2023-11-21T12:24:13;10.98;;;8.55;;
12224;SDS011;6175;50.956;11.064;2023-11-21T12:26:41;13.13;;;9.65;;
12224;SDS011;6175;50.956;11.064;2023-11-21T12:29:09;12.32;;;8.93;;
12224;SDS011;6175;50.956;11.064;2023-11-21T12:31:36;13.30;;;8.30;;
12224;SDS011;6175;50.956;11.064;2023-11-21T12:34:05;10.73;;;8.65;;
12224;SDS011;6175;50.956;11.064;2023-11-21T12:36:34;11.35;;;8.63;;
12224;SDS011;6175;50.956;11.064;2023-11-21T12:39:01;11.13;;;7.38;;
12224;SDS011;6175;50.956;11.064;2023-11-21T12:41:29;10.63;;;8.27;;
12224;SDS011;6175;50.956;11.064;2023-11-21T12:43:56;9.77;;;7.50;;
12224;SDS011;6175;50.956;11.064;2023-11-21T12:46:24;9.98;;;7.22;;
12224;SDS011;6175;50.956;11.064;2023-11-21T12:48:54;7.47;;;6.18;;
12224;SDS011;6175;50.956;11.064;2023-11-21T12:51:23;6.38;;;5.43;;
12224;SDS011;6175;50.956;11.064;2023-11-21T12:53:50;7.07;;;5.78;;
12224;SDS011;6175;50.956;11.064;2023-11-21T12:56:17;9.48;;;6.47;;
12224;SDS011;6175;50.956;11.064;2023-11-21T12:58:45;7.35;;;5.93;;
12224;SDS011;6175;50.956;11.064;2023-11-21T13:01:13;8.68;;;6.30;;
12224;SDS011;6175;50.956;11.064;2023-11-21T13:03:44;8.18;;;6.15;;
12224;SDS011;6175;50.956;11.064;2023-11-21T13:06:16;9.68;;;7.50;;
12224;SDS011;6175;50.956;11.064;2023-11-21T13:08:45;10.73;;;8.20;;
12224;SDS011;6175;50.956;11.064;2023-11-21T13:11:13;10.05;;;8.23;;
12224;SDS011;6175;50.956;11.064;2023-11-21T13:13:40;12.45;;;8.38;;
12224;SDS011;6175;50.956;11.064;2023-11-21T13:16:09;14.23;;;10.77;;
12224;SDS011;6175;50.956;11.064;2023-11-21T13:18:36;9.60;;;7.32;;
12224;SDS011;6175;50.956;11.064;2023-11-21T13:21:05;7.60;;;6.40;;
12224;SDS011;6175;50.956;11.064;2023-11-21T13:23:36;7.93;;;6.53;;
12224;SDS011;6175;50.956;11.064;2023-11-21T13:26:06;7.28;;;6.10;;
12224;SDS011;6175;50.956;11.064;2023-11-21T13:28:34;7.93;;;6.20;;
12224;SDS011;6175;50.956;11.064;2023-11-21T13:31:02;7.05;;;5.38;;
12224;SDS011;6175;50.956;11.064;2023-11-21T13:33:34;6.20;;;5.15;;
12224;SDS011;6175;50.956;11.064;2023-11-21T13:36:03;6.55;;;5.72;;
12224;SDS011;6175;50.956;11.064;2023-11-21T13:38:33;4.38;;;3.60;;
12224;SDS011;6175;50.956;11.064;2023-11-21T13:41:01;5.53;;;3.70;;
12224;SDS011;6175;50.956;11.064;2023-11-21T13:43:34;3.80;;;3.30;;
12224;SDS011;6175;50.956;11.064;2023-11-21T13:46:02;3.55;;;3.05;;
12224;SDS011;6175;50.956;11.064;2023-11-21T13:48:40;3.35;;;2.70;;
12224;SDS011;6175;50.956;11.064;2023-11-21T13:51:15;4.55;;;3.28;;
12224;SDS011;6175;50.956;11.064;2023-11-21T13:53:43;5.20;;;3.65;;
12224;SDS011;6175;50.956;11.064;2023-11-21T13:56:13;6.38;;;4.57;;
12224;SDS011;6175;50.956;11.064;2023-11-21T13:58:45;4.40;;;3.72;;
12224;SDS011;6175;50.956;11.064;2023-11-21T14:01:16;5.78;;;4.10;;
12224;SDS011;6175;50.956;11.064;2023-11-21T14:04:06;4.97;;;4.38;;
12224;SDS011;6175;50.956;11.064;2023-11-21T14:06:44;5.72;;;4.43;;
12224;SDS011;6175;50.956;11.064;2023-11-21T14:09:13;5.70;;;4.93;;
12224;SDS011;6175;50.956;11.064;2023-11-21T14:11:48;7.97;;;5.45;;
12224;SDS011;6175;50.956;11.064;2023-11-21T14:14:18;9.20;;;6.57;;
12224;SDS011;6175;50.956;11.064;2023-11-21T14:16:45;8.35;;;6.47;;
12224;SDS011;6175;50.956;11.064;2023-11-21T14:19:12;6.63;;;5.47;;
12224;SDS011;6175;50.956;11.064;2023-11-21T14:21:42;7.20;;;5.93;;
12224;SDS011;6175;50.956;11.064;2023-11-21T14:24:10;7.30;;;6.25;;
12224;SDS011;6175;50.956;11.064;2023-11-21T14:26:39;10.77;;;8.20;;
12224;SDS011;6175;50.956;11.064;2023-11-21T14:29:07;10.77;;;8.77;;
12224;SDS011;6175;50.956;11.064;2023-11-21T14:31:39;14.57;;;11.38;;
12224;SDS011;6175;50.956;11.064;2023-11-21T14:34:06;14.55;;;11.75;;
12224;SDS011;6175;50.956;11.064;2023-11-21T14:36:33;15.20;;;11.75;;
12224;SDS011;6175;50.956;11.064;2023-11-21T14:39:01;17.75;;;12.98;;
12224;SDS011;6175;50.956;11.064;2023-11-21T14:41:32;16.42;;;12.90;;
12224;SDS011;6175;50.956;11.064;2023-11-21T14:44:01;18.00;;;13.10;;
12224;SDS011;6175;50.956;11.064;2023-11-21T14:46:29;17.88;;;13.40;;
12224;SDS011;6175;50.956;11.064;2023-11-21T14:48:58;17.45;;;13.48;;
12224;SDS011;6175;50.956;11.064;2023-11-21T14:51:32;18.70;;;13.65;;
12224;SDS011;6175;50.956;11.064;2023-11-21T14:54:19;16.17;;;12.35;;
12224;SDS011;6175;50.956;11.064;2023-11-21T14:57:00;17.15;;;13.02;;